Archival Weather

Chicago O'Hare International

Chicago, Illinois (KORD)

Report from: Thursday, June 23, 2022 3:51 PM CDT
Current time: Sunday, June 26, 2022 1:02 PM CDT

Current weather
Weather history
Weather forecast

Temperature28.9°C (84.0°F)
Heat index28.0°C (82.3°F)
Dew point9.4°C (48.9°F)
Winds 7 kts (3.6 m/s, 8.1 mph) East (80°)
Visibility10 mi. (16.1 km)
Clouds Sky clear
Altimeter30.02 in.Hg (1017 mB)
Relative humidity30 %
Density altitude1,655 ft. (504 m)
Sea-level pressure101.6 kPa (1016 mB, 30.01 in.Hg)
Remarks Automated weather observing station with precipitation discriminator
Pressure falling more slowly
Flight conditions Visual Meteorological Conditions
Raw dataKORD 232051Z 08007KT 10SM CLR 29/09 A3002 RMK AO2 SLP161 T02890094 56010
An error has occurred. This application may no longer respond until reloaded. Reload 🗙